sensor_id;sensor_type;location;lat;lon;timestamp;P1;durP1;ratioP1;P2;durP2;ratioP2
11998;SDS011;40817;51.520;9.954;2023-11-21T00:01:36;7.45;;;3.13;;
11998;SDS011;40817;51.520;9.954;2023-11-21T00:04:03;8.02;;;3.28;;
11998;SDS011;40817;51.520;9.954;2023-11-21T00:06:32;9.07;;;3.67;;
11998;SDS011;40817;51.520;9.954;2023-11-21T00:08:59;7.15;;;3.08;;
11998;SDS011;40817;51.520;9.954;2023-11-21T00:11:27;6.10;;;3.75;;
11998;SDS011;40817;51.520;9.954;2023-11-21T00:13:54;7.10;;;2.70;;
11998;SDS011;40817;51.520;9.954;2023-11-21T00:16:23;7.13;;;3.05;;
11998;SDS011;40817;51.520;9.954;2023-11-21T00:18:52;5.68;;;3.00;;
11998;SDS011;40817;51.520;9.954;2023-11-21T00:21:19;9.43;;;2.67;;
11998;SDS011;40817;51.520;9.954;2023-11-21T00:23:47;5.75;;;2.75;;
11998;SDS011;40817;51.520;9.954;2023-11-21T00:26:14;6.90;;;3.22;;
11998;SDS011;40817;51.520;9.954;2023-11-21T00:28:41;4.13;;;2.85;;
11998;SDS011;40817;51.520;9.954;2023-11-21T00:31:08;6.70;;;3.17;;
11998;SDS011;40817;51.520;9.954;2023-11-21T00:33:36;9.32;;;3.00;;
11998;SDS011;40817;51.520;9.954;2023-11-21T00:36:05;6.43;;;3.42;;
11998;SDS011;40817;51.520;9.954;2023-11-21T00:38:34;8.82;;;3.35;;
11998;SDS011;40817;51.520;9.954;2023-11-21T00:41:05;8.27;;;3.85;;
11998;SDS011;40817;51.520;9.954;2023-11-21T00:43:32;7.47;;;2.83;;
11998;SDS011;40817;51.520;9.954;2023-11-21T00:45:59;6.05;;;3.45;;
11998;SDS011;40817;51.520;9.954;2023-11-21T00:48:32;5.50;;;3.30;;
11998;SDS011;40817;51.520;9.954;2023-11-21T00:50:59;5.55;;;2.85;;
11998;SDS011;40817;51.520;9.954;2023-11-21T00:53:28;7.72;;;4.20;;
11998;SDS011;40817;51.520;9.954;2023-11-21T00:55:55;4.30;;;2.53;;
11998;SDS011;40817;51.520;9.954;2023-11-21T00:58:23;6.45;;;2.67;;
11998;SDS011;40817;51.520;9.954;2023-11-21T01:00:50;7.80;;;3.03;;
11998;SDS011;40817;51.520;9.954;2023-11-21T01:03:17;6.78;;;2.83;;
11998;SDS011;40817;51.520;9.954;2023-11-21T01:05:45;7.47;;;4.03;;
11998;SDS011;40817;51.520;9.954;2023-11-21T01:08:14;6.93;;;3.10;;
11998;SDS011;40817;51.520;9.954;2023-11-21T01:10:44;6.57;;;3.40;;
11998;SDS011;40817;51.520;9.954;2023-11-21T01:13:11;6.10;;;3.42;;
11998;SDS011;40817;51.520;9.954;2023-11-21T01:15:40;8.13;;;3.40;;
11998;SDS011;40817;51.520;9.954;2023-11-21T01:18:07;6.43;;;3.97;;
11998;SDS011;40817;51.520;9.954;2023-11-21T01:20:35;7.97;;;3.40;;
11998;SDS011;40817;51.520;9.954;2023-11-21T01:23:02;6.30;;;3.30;;
11998;SDS011;40817;51.520;9.954;2023-11-21T01:25:30;8.18;;;3.95;;
11998;SDS011;40817;51.520;9.954;2023-11-21T01:27:58;5.43;;;3.80;;
11998;SDS011;40817;51.520;9.954;2023-11-21T01:30:25;10.75;;;4.00;;
11998;SDS011;40817;51.520;9.954;2023-11-21T01:32:53;11.73;;;4.13;;
11998;SDS011;40817;51.520;9.954;2023-11-21T01:35:20;6.90;;;3.42;;
11998;SDS011;40817;51.520;9.954;2023-11-21T01:37:47;6.05;;;3.33;;
11998;SDS011;40817;51.520;9.954;2023-11-21T01:40:15;5.28;;;3.22;;
11998;SDS011;40817;51.520;9.954;2023-11-21T01:42:42;6.53;;;3.40;;
11998;SDS011;40817;51.520;9.954;2023-11-21T01:45:13;10.00;;;3.67;;
11998;SDS011;40817;51.520;9.954;2023-11-21T01:47:41;5.03;;;3.17;;
11998;SDS011;40817;51.520;9.954;2023-11-21T01:50:13;5.53;;;3.10;;
11998;SDS011;40817;51.520;9.954;2023-11-21T01:52:43;6.35;;;3.22;;
11998;SDS011;40817;51.520;9.954;2023-11-21T01:55:13;5.28;;;3.45;;
11998;SDS011;40817;51.520;9.954;2023-11-21T01:57:44;8.80;;;3.47;;
11998;SDS011;40817;51.520;9.954;2023-11-21T02:00:14;7.40;;;3.42;;
11998;SDS011;40817;51.520;9.954;2023-11-21T02:02:42;5.40;;;3.45;;
11998;SDS011;40817;51.520;9.954;2023-11-21T02:05:10;5.32;;;3.47;;
11998;SDS011;40817;51.520;9.954;2023-11-21T02:07:38;9.05;;;3.70;;
11998;SDS011;40817;51.520;9.954;2023-11-21T02:10:06;7.63;;;3.50;;
11998;SDS011;40817;51.520;9.954;2023-11-21T02:12:34;6.57;;;3.15;;
11998;SDS011;40817;51.520;9.954;2023-11-21T02:15:04;9.15;;;3.67;;
11998;SDS011;40817;51.520;9.954;2023-11-21T02:17:41;6.43;;;3.38;;
11998;SDS011;40817;51.520;9.954;2023-11-21T02:20:10;7.25;;;3.55;;
11998;SDS011;40817;51.520;9.954;2023-11-21T02:22:40;5.63;;;3.30;;
11998;SDS011;40817;51.520;9.954;2023-11-21T02:25:10;7.55;;;4.22;;
11998;SDS011;40817;51.520;9.954;2023-11-21T02:27:39;5.95;;;3.13;;
11998;SDS011;40817;51.520;9.954;2023-11-21T02:30:07;6.82;;;3.63;;
11998;SDS011;40817;51.520;9.954;2023-11-21T02:32:38;9.05;;;3.90;;
11998;SDS011;40817;51.520;9.954;2023-11-21T02:35:07;8.27;;;4.22;;
11998;SDS011;40817;51.520;9.954;2023-11-21T02:37:37;6.32;;;3.78;;
11998;SDS011;40817;51.520;9.954;2023-11-21T02:40:07;8.80;;;3.85;;
11998;SDS011;40817;51.520;9.954;2023-11-21T02:42:38;7.22;;;3.90;;
11998;SDS011;40817;51.520;9.954;2023-11-21T02:45:06;8.25;;;4.00;;
11998;SDS011;40817;51.520;9.954;2023-11-21T02:47:37;9.80;;;3.78;;
11998;SDS011;40817;51.520;9.954;2023-11-21T02:50:05;8.80;;;3.83;;
11998;SDS011;40817;51.520;9.954;2023-11-21T02:52:34;10.82;;;4.85;;
11998;SDS011;40817;51.520;9.954;2023-11-21T02:55:02;10.85;;;4.25;;
11998;SDS011;40817;51.520;9.954;2023-11-21T02:57:32;8.35;;;3.65;;
11998;SDS011;40817;51.520;9.954;2023-11-21T02:59:59;7.38;;;3.78;;
11998;SDS011;40817;51.520;9.954;2023-11-21T03:02:27;6.72;;;4.07;;
11998;SDS011;40817;51.520;9.954;2023-11-21T03:04:54;7.43;;;3.83;;
11998;SDS011;40817;51.520;9.954;2023-11-21T03:07:22;10.60;;;3.83;;
11998;SDS011;40817;51.520;9.954;2023-11-21T03:09:49;7.32;;;3.88;;
11998;SDS011;40817;51.520;9.954;2023-11-21T03:12:16;7.95;;;3.83;;
11998;SDS011;40817;51.520;9.954;2023-11-21T03:14:46;8.07;;;3.55;;
11998;SDS011;40817;51.520;9.954;2023-11-21T03:17:13;7.85;;;3.55;;
11998;SDS011;40817;51.520;9.954;2023-11-21T03:19:41;7.38;;;3.72;;
11998;SDS011;40817;51.520;9.954;2023-11-21T03:22:08;6.75;;;3.83;;
11998;SDS011;40817;51.520;9.954;2023-11-21T03:24:36;8.38;;;4.28;;
11998;SDS011;40817;51.520;9.954;2023-11-21T03:27:04;8.95;;;3.78;;
11998;SDS011;40817;51.520;9.954;2023-11-21T03:29:31;7.70;;;4.25;;
11998;SDS011;40817;51.520;9.954;2023-11-21T03:32:00;5.65;;;3.30;;
11998;SDS011;40817;51.520;9.954;2023-11-21T03:34:27;7.72;;;3.78;;
11998;SDS011;40817;51.520;9.954;2023-11-21T03:36:55;7.65;;;3.72;;
11998;SDS011;40817;51.520;9.954;2023-11-21T03:39:23;7.22;;;4.10;;
11998;SDS011;40817;51.520;9.954;2023-11-21T03:41:51;12.07;;;3.85;;
11998;SDS011;40817;51.520;9.954;2023-11-21T03:44:18;6.38;;;3.97;;
11998;SDS011;40817;51.520;9.954;2023-11-21T03:46:45;10.30;;;3.92;;
11998;SDS011;40817;51.520;9.954;2023-11-21T03:49:14;6.70;;;3.70;;
11998;SDS011;40817;51.520;9.954;2023-11-21T03:51:41;7.20;;;3.70;;
11998;SDS011;40817;51.520;9.954;2023-11-21T03:54:09;6.03;;;3.45;;
11998;SDS011;40817;51.520;9.954;2023-11-21T03:56:36;5.60;;;3.30;;
11998;SDS011;40817;51.520;9.954;2023-11-21T03:59:03;13.80;;;4.63;;
11998;SDS011;40817;51.520;9.954;2023-11-21T04:01:31;6.13;;;3.15;;
11998;SDS011;40817;51.520;9.954;2023-11-21T04:03:58;8.27;;;3.42;;
11998;SDS011;40817;51.520;9.954;2023-11-21T04:06:27;8.60;;;3.92;;
11998;SDS011;40817;51.520;9.954;2023-11-21T04:08:54;7.55;;;3.45;;
11998;SDS011;40817;51.520;9.954;2023-11-21T04:11:21;9.98;;;4.38;;
11998;SDS011;40817;51.520;9.954;2023-11-21T04:13:48;9.23;;;3.83;;
11998;SDS011;40817;51.520;9.954;2023-11-21T04:16:16;5.53;;;3.50;;
11998;SDS011;40817;51.520;9.954;2023-11-21T04:18:43;7.22;;;4.13;;
11998;SDS011;40817;51.520;9.954;2023-11-21T04:21:10;11.35;;;3.97;;
11998;SDS011;40817;51.520;9.954;2023-11-21T04:23:39;6.82;;;3.58;;
11998;SDS011;40817;51.520;9.954;2023-11-21T04:26:06;6.82;;;3.70;;
11998;SDS011;40817;51.520;9.954;2023-11-21T04:28:33;7.60;;;3.58;;
11998;SDS011;40817;51.520;9.954;2023-11-21T04:31:01;7.43;;;3.63;;
11998;SDS011;40817;51.520;9.954;2023-11-21T04:33:28;6.93;;;3.63;;
11998;SDS011;40817;51.520;9.954;2023-11-21T04:35:56;6.90;;;3.63;;
11998;SDS011;40817;51.520;9.954;2023-11-21T04:38:23;8.57;;;4.20;;
11998;SDS011;40817;51.520;9.954;2023-11-21T04:40:52;10.77;;;4.32;;
11998;SDS011;40817;51.520;9.954;2023-11-21T04:43:19;8.20;;;4.28;;
11998;SDS011;40817;51.520;9.954;2023-11-21T04:45:47;9.10;;;4.40;;
11998;SDS011;40817;51.520;9.954;2023-11-21T04:48:14;11.35;;;4.70;;
11998;SDS011;40817;51.520;9.954;2023-11-21T04:50:41;6.43;;;4.05;;
11998;SDS011;40817;51.520;9.954;2023-11-21T04:53:08;7.20;;;4.45;;
11998;SDS011;40817;51.520;9.954;2023-11-21T04:55:38;8.73;;;4.40;;
11998;SDS011;40817;51.520;9.954;2023-11-21T04:58:07;8.20;;;4.22;;
11998;SDS011;40817;51.520;9.954;2023-11-21T05:00:34;10.23;;;5.47;;
11998;SDS011;40817;51.520;9.954;2023-11-21T05:03:02;7.88;;;4.25;;
11998;SDS011;40817;51.520;9.954;2023-11-21T05:05:30;11.15;;;4.50;;
11998;SDS011;40817;51.520;9.954;2023-11-21T05:07:57;6.28;;;3.72;;
11998;SDS011;40817;51.520;9.954;2023-11-21T05:10:26;8.38;;;4.07;;
11998;SDS011;40817;51.520;9.954;2023-11-21T05:12:54;9.25;;;4.30;;
11998;SDS011;40817;51.520;9.954;2023-11-21T05:15:24;8.00;;;4.07;;
11998;SDS011;40817;51.520;9.954;2023-11-21T05:17:52;5.93;;;3.85;;
11998;SDS011;40817;51.520;9.954;2023-11-21T05:20:20;7.03;;;4.00;;
11998;SDS011;40817;51.520;9.954;2023-11-21T05:22:48;7.63;;;3.72;;
11998;SDS011;40817;51.520;9.954;2023-11-21T05:25:16;7.72;;;3.65;;
11998;SDS011;40817;51.520;9.954;2023-11-21T05:27:44;7.53;;;3.70;;
11998;SDS011;40817;51.520;9.954;2023-11-21T05:30:11;9.93;;;4.53;;
11998;SDS011;40817;51.520;9.954;2023-11-21T05:32:41;8.43;;;4.38;;
11998;SDS011;40817;51.520;9.954;2023-11-21T05:35:09;11.80;;;4.82;;
11998;SDS011;40817;51.520;9.954;2023-11-21T05:37:40;9.55;;;4.20;;
11998;SDS011;40817;51.520;9.954;2023-11-21T05:40:08;8.65;;;3.97;;
11998;SDS011;40817;51.520;9.954;2023-11-21T05:42:38;9.52;;;3.88;;
11998;SDS011;40817;51.520;9.954;2023-11-21T05:45:07;6.80;;;3.92;;
11998;SDS011;40817;51.520;9.954;2023-11-21T05:47:39;6.97;;;3.97;;
11998;SDS011;40817;51.520;9.954;2023-11-21T05:50:11;7.68;;;4.30;;
11998;SDS011;40817;51.520;9.954;2023-11-21T05:52:40;7.85;;;4.28;;
11998;SDS011;40817;51.520;9.954;2023-11-21T05:55:08;8.23;;;3.78;;
11998;SDS011;40817;51.520;9.954;2023-11-21T05:57:37;7.13;;;4.70;;
11998;SDS011;40817;51.520;9.954;2023-11-21T06:00:07;6.20;;;4.22;;
11998;SDS011;40817;51.520;9.954;2023-11-21T06:02:41;5.90;;;3.60;;
11998;SDS011;40817;51.520;9.954;2023-11-21T06:05:09;8.65;;;4.30;;
11998;SDS011;40817;51.520;9.954;2023-11-21T06:07:36;8.25;;;4.13;;
11998;SDS011;40817;51.520;9.954;2023-11-21T06:10:05;9.02;;;4.82;;
11998;SDS011;40817;51.520;9.954;2023-11-21T06:12:36;8.10;;;4.03;;
11998;SDS011;40817;51.520;9.954;2023-11-21T06:15:05;6.90;;;3.90;;
11998;SDS011;40817;51.520;9.954;2023-11-21T06:17:35;5.93;;;3.67;;
11998;SDS011;40817;51.520;9.954;2023-11-21T06:20:04;10.70;;;4.60;;
11998;SDS011;40817;51.520;9.954;2023-11-21T06:22:35;8.68;;;4.45;;
11998;SDS011;40817;51.520;9.954;2023-11-21T06:25:03;9.07;;;4.18;;
11998;SDS011;40817;51.520;9.954;2023-11-21T06:27:33;9.20;;;5.15;;
11998;SDS011;40817;51.520;9.954;2023-11-21T06:30:04;7.68;;;4.30;;
11998;SDS011;40817;51.520;9.954;2023-11-21T06:32:34;7.88;;;4.72;;
11998;SDS011;40817;51.520;9.954;2023-11-21T06:35:03;6.75;;;4.20;;
11998;SDS011;40817;51.520;9.954;2023-11-21T06:37:33;8.77;;;4.70;;
11998;SDS011;40817;51.520;9.954;2023-11-21T06:40:01;11.30;;;5.38;;
11998;SDS011;40817;51.520;9.954;2023-11-21T06:42:30;12.57;;;6.03;;
11998;SDS011;40817;51.520;9.954;2023-11-21T06:44:58;12.10;;;5.50;;
11998;SDS011;40817;51.520;9.954;2023-11-21T06:47:29;10.27;;;5.78;;
11998;SDS011;40817;51.520;9.954;2023-11-21T06:49:56;7.97;;;5.55;;
11998;SDS011;40817;51.520;9.954;2023-11-21T06:52:25;10.00;;;5.05;;
11998;SDS011;40817;51.520;9.954;2023-11-21T06:54:52;10.43;;;5.35;;
11998;SDS011;40817;51.520;9.954;2023-11-21T06:57:20;10.98;;;5.72;;
11998;SDS011;40817;51.520;9.954;2023-11-21T06:59:49;9.25;;;5.78;;
11998;SDS011;40817;51.520;9.954;2023-11-21T07:02:16;4.05;;;2.30;;
11998;SDS011;40817;51.520;9.954;2023-11-21T07:04:44;4.38;;;2.78;;
11998;SDS011;40817;51.520;9.954;2023-11-21T07:07:12;8.50;;;4.63;;
11998;SDS011;40817;51.520;9.954;2023-11-21T07:09:40;8.50;;;4.00;;
11998;SDS011;40817;51.520;9.954;2023-11-21T07:12:08;9.65;;;4.15;;
11998;SDS011;40817;51.520;9.954;2023-11-21T07:14:36;7.50;;;3.60;;
11998;SDS011;40817;51.520;9.954;2023-11-21T07:17:04;9.15;;;3.75;;
11998;SDS011;40817;51.520;9.954;2023-11-21T07:19:31;9.10;;;4.07;;
11998;SDS011;40817;51.520;9.954;2023-11-21T07:21:59;5.82;;;3.35;;
11998;SDS011;40817;51.520;9.954;2023-11-21T07:24:26;10.15;;;4.85;;
11998;SDS011;40817;51.520;9.954;2023-11-21T07:26:55;9.68;;;4.78;;
11998;SDS011;40817;51.520;9.954;2023-11-21T07:29:23;9.98;;;5.30;;
11998;SDS011;40817;51.520;9.954;2023-11-21T07:31:51;10.23;;;5.30;;
11998;SDS011;40817;51.520;9.954;2023-11-21T07:34:19;9.73;;;5.88;;
11998;SDS011;40817;51.520;9.954;2023-11-21T07:36:46;6.93;;;4.75;;
11998;SDS011;40817;51.520;9.954;2023-11-21T07:39:14;12.32;;;5.43;;
11998;SDS011;40817;51.520;9.954;2023-11-21T07:41:41;11.45;;;5.30;;
11998;SDS011;40817;51.520;9.954;2023-11-21T07:44:15;13.25;;;6.03;;
11998;SDS011;40817;51.520;9.954;2023-11-21T07:46:44;9.80;;;4.90;;
11998;SDS011;40817;51.520;9.954;2023-11-21T07:49:12;7.88;;;4.97;;
11998;SDS011;40817;51.520;9.954;2023-11-21T07:51:41;10.20;;;5.30;;
11998;SDS011;40817;51.520;9.954;2023-11-21T07:54:08;12.73;;;6.50;;
11998;SDS011;40817;51.520;9.954;2023-11-21T07:56:36;12.07;;;6.72;;
11998;SDS011;40817;51.520;9.954;2023-11-21T07:59:03;14.48;;;6.70;;
11998;SDS011;40817;51.520;9.954;2023-11-21T08:01:32;13.43;;;6.20;;
11998;SDS011;40817;51.520;9.954;2023-11-21T08:03:59;15.55;;;6.78;;
11998;SDS011;40817;51.520;9.954;2023-11-21T08:06:28;11.05;;;6.13;;
11998;SDS011;40817;51.520;9.954;2023-11-21T08:08:56;11.48;;;6.15;;
11998;SDS011;40817;51.520;9.954;2023-11-21T08:11:23;10.32;;;5.93;;
11998;SDS011;40817;51.520;9.954;2023-11-21T08:13:51;9.65;;;6.40;;
11998;SDS011;40817;51.520;9.954;2023-11-21T08:16:20;14.95;;;6.72;;
11998;SDS011;40817;51.520;9.954;2023-11-21T08:18:50;11.02;;;5.95;;
11998;SDS011;40817;51.520;9.954;2023-11-21T08:21:17;11.82;;;6.38;;
11998;SDS011;40817;51.520;9.954;2023-11-21T08:23:45;11.50;;;5.97;;
11998;SDS011;40817;51.520;9.954;2023-11-21T08:26:12;10.73;;;6.03;;
11998;SDS011;40817;51.520;9.954;2023-11-21T08:28:43;11.15;;;6.30;;
11998;SDS011;40817;51.520;9.954;2023-11-21T08:31:10;13.23;;;6.93;;
11998;SDS011;40817;51.520;9.954;2023-11-21T08:33:37;11.45;;;6.00;;
11998;SDS011;40817;51.520;9.954;2023-11-21T08:36:08;12.77;;;6.72;;
11998;SDS011;40817;51.520;9.954;2023-11-21T08:38:37;12.10;;;7.05;;
11998;SDS011;40817;51.520;9.954;2023-11-21T08:41:05;17.40;;;7.53;;
11998;SDS011;40817;51.520;9.954;2023-11-21T08:43:33;12.50;;;6.85;;
11998;SDS011;40817;51.520;9.954;2023-11-21T08:46:04;15.80;;;6.97;;
11998;SDS011;40817;51.520;9.954;2023-11-21T08:48:34;14.07;;;6.47;;
11998;SDS011;40817;51.520;9.954;2023-11-21T08:51:03;12.18;;;7.05;;
11998;SDS011;40817;51.520;9.954;2023-11-21T08:53:32;13.45;;;6.60;;
11998;SDS011;40817;51.520;9.954;2023-11-21T08:56:00;12.95;;;7.10;;
11998;SDS011;40817;51.520;9.954;2023-11-21T08:58:27;15.27;;;7.10;;
11998;SDS011;40817;51.520;9.954;2023-11-21T09:00:54;15.02;;;7.60;;
11998;SDS011;40817;51.520;9.954;2023-11-21T09:03:21;18.08;;;8.27;;
11998;SDS011;40817;51.520;9.954;2023-11-21T09:05:49;15.35;;;7.65;;
11998;SDS011;40817;51.520;9.954;2023-11-21T09:08:17;15.38;;;8.00;;
11998;SDS011;40817;51.520;9.954;2023-11-21T09:10:45;18.88;;;8.25;;
11998;SDS011;40817;51.520;9.954;2023-11-21T09:13:13;17.13;;;8.30;;
11998;SDS011;40817;51.520;9.954;2023-11-21T09:15:42;20.33;;;9.43;;
11998;SDS011;40817;51.520;9.954;2023-11-21T09:18:11;17.90;;;8.25;;
11998;SDS011;40817;51.520;9.954;2023-11-21T09:20:40;16.05;;;7.80;;
11998;SDS011;40817;51.520;9.954;2023-11-21T09:23:09;22.40;;;8.63;;
11998;SDS011;40817;51.520;9.954;2023-11-21T09:25:36;19.35;;;8.85;;
11998;SDS011;40817;51.520;9.954;2023-11-21T09:28:05;14.25;;;7.28;;
11998;SDS011;40817;51.520;9.954;2023-11-21T09:30:33;23.05;;;7.38;;
11998;SDS011;40817;51.520;9.954;2023-11-21T09:33:01;19.02;;;9.18;;
11998;SDS011;40817;51.520;9.954;2023-11-21T09:35:30;21.25;;;8.48;;
11998;SDS011;40817;51.520;9.954;2023-11-21T09:37:57;16.27;;;7.35;;
11998;SDS011;40817;51.520;9.954;2023-11-21T09:40:26;15.25;;;7.88;;
11998;SDS011;40817;51.520;9.954;2023-11-21T09:42:56;24.85;;;9.48;;
11998;SDS011;40817;51.520;9.954;2023-11-21T09:45:26;18.52;;;8.02;;
11998;SDS011;40817;51.520;9.954;2023-11-21T09:47:59;16.98;;;7.80;;
11998;SDS011;40817;51.520;9.954;2023-11-21T09:50:28;18.55;;;9.23;;
11998;SDS011;40817;51.520;9.954;2023-11-21T09:53:00;15.27;;;9.30;;
11998;SDS011;40817;51.520;9.954;2023-11-21T09:55:44;19.17;;;9.18;;
11998;SDS011;40817;51.520;9.954;2023-11-21T09:58:13;23.20;;;9.77;;
11998;SDS011;40817;51.520;9.954;2023-11-21T10:00:43;17.20;;;9.63;;
11998;SDS011;40817;51.520;9.954;2023-11-21T10:03:12;20.33;;;9.07;;
11998;SDS011;40817;51.520;9.954;2023-11-21T10:05:40;17.77;;;9.73;;
11998;SDS011;40817;51.520;9.954;2023-11-21T10:08:10;21.00;;;9.10;;
11998;SDS011;40817;51.520;9.954;2023-11-21T10:10:42;16.88;;;8.65;;
11998;SDS011;40817;51.520;9.954;2023-11-21T10:13:11;18.05;;;9.75;;
11998;SDS011;40817;51.520;9.954;2023-11-21T10:15:43;17.20;;;8.90;;
11998;SDS011;40817;51.520;9.954;2023-11-21T10:18:15;16.08;;;8.82;;
11998;SDS011;40817;51.520;9.954;2023-11-21T10:20:42;20.70;;;9.80;;
11998;SDS011;40817;51.520;9.954;2023-11-21T10:23:17;19.33;;;10.27;;
11998;SDS011;40817;51.520;9.954;2023-11-21T10:25:46;18.33;;;10.02;;
11998;SDS011;40817;51.520;9.954;2023-11-21T10:28:15;18.25;;;9.00;;
11998;SDS011;40817;51.520;9.954;2023-11-21T10:30:43;15.32;;;8.95;;
11998;SDS011;40817;51.520;9.954;2023-11-21T10:33:11;17.73;;;8.65;;
11998;SDS011;40817;51.520;9.954;2023-11-21T10:35:45;17.92;;;8.52;;
11998;SDS011;40817;51.520;9.954;2023-11-21T10:38:15;14.98;;;8.27;;
11998;SDS011;40817;51.520;9.954;2023-11-21T10:40:43;14.75;;;7.80;;
11998;SDS011;40817;51.520;9.954;2023-11-21T10:43:11;18.10;;;9.45;;
11998;SDS011;40817;51.520;9.954;2023-11-21T10:45:40;16.85;;;8.82;;
11998;SDS011;40817;51.520;9.954;2023-11-21T10:48:10;18.83;;;9.35;;
11998;SDS011;40817;51.520;9.954;2023-11-21T10:50:41;14.70;;;8.38;;
11998;SDS011;40817;51.520;9.954;2023-11-21T10:53:11;13.60;;;8.68;;
11998;SDS011;40817;51.520;9.954;2023-11-21T10:55:38;19.10;;;9.98;;
11998;SDS011;40817;51.520;9.954;2023-11-21T10:58:06;16.50;;;9.90;;
11998;SDS011;40817;51.520;9.954;2023-11-21T11:00:36;17.02;;;9.30;;
11998;SDS011;40817;51.520;9.954;2023-11-21T11:03:05;17.67;;;9.05;;
11998;SDS011;40817;51.520;9.954;2023-11-21T11:05:40;16.63;;;8.55;;
11998;SDS011;40817;51.520;9.954;2023-11-21T11:08:11;13.60;;;7.78;;
11998;SDS011;40817;51.520;9.954;2023-11-21T11:10:44;15.60;;;8.35;;
11998;SDS011;40817;51.520;9.954;2023-11-21T11:13:13;15.75;;;9.18;;
11998;SDS011;40817;51.520;9.954;2023-11-21T11:15:41;15.15;;;8.70;;
11998;SDS011;40817;51.520;9.954;2023-11-21T11:18:09;14.80;;;8.48;;
11998;SDS011;40817;51.520;9.954;2023-11-21T11:20:41;14.70;;;9.18;;
11998;SDS011;40817;51.520;9.954;2023-11-21T11:23:17;13.18;;;8.30;;
11998;SDS011;40817;51.520;9.954;2023-11-21T11:26:12;13.10;;;8.05;;
11998;SDS011;40817;51.520;9.954;2023-11-21T11:28:55;13.82;;;8.02;;
11998;SDS011;40817;51.520;9.954;2023-11-21T11:31:37;14.60;;;8.82;;
11998;SDS011;40817;51.520;9.954;2023-11-21T11:34:30;15.32;;;9.05;;
11998;SDS011;40817;51.520;9.954;2023-11-21T11:37:05;11.40;;;7.07;;
11998;SDS011;40817;51.520;9.954;2023-11-21T11:39:35;13.18;;;7.00;;
11998;SDS011;40817;51.520;9.954;2023-11-21T11:42:07;12.60;;;6.95;;
11998;SDS011;40817;51.520;9.954;2023-11-21T11:44:47;12.50;;;7.72;;
11998;SDS011;40817;51.520;9.954;2023-11-21T11:47:20;11.25;;;6.45;;
11998;SDS011;40817;51.520;9.954;2023-11-21T11:49:59;10.70;;;6.53;;
11998;SDS011;40817;51.520;9.954;2023-11-21T11:52:38;13.65;;;7.22;;
11998;SDS011;40817;51.520;9.954;2023-11-21T11:55:08;17.00;;;8.00;;
11998;SDS011;40817;51.520;9.954;2023-11-21T11:57:38;13.65;;;7.80;;
11998;SDS011;40817;51.520;9.954;2023-11-21T12:00:10;12.23;;;7.38;;
11998;SDS011;40817;51.520;9.954;2023-11-21T12:02:46;12.38;;;7.40;;
11998;SDS011;40817;51.520;9.954;2023-11-21T12:05:15;13.82;;;7.28;;
11998;SDS011;40817;51.520;9.954;2023-11-21T12:07:50;11.95;;;7.45;;
11998;SDS011;40817;51.520;9.954;2023-11-21T12:10:19;9.80;;;5.45;;
11998;SDS011;40817;51.520;9.954;2023-11-21T12:12:50;6.97;;;4.38;;
11998;SDS011;40817;51.520;9.954;2023-11-21T12:15:19;5.85;;;3.03;;
11998;SDS011;40817;51.520;9.954;2023-11-21T12:17:48;4.53;;;2.45;;
11998;SDS011;40817;51.520;9.954;2023-11-21T12:20:18;3.90;;;2.30;;
11998;SDS011;40817;51.520;9.954;2023-11-21T12:22:47;3.75;;;2.58;;
11998;SDS011;40817;51.520;9.954;2023-11-21T12:25:18;4.80;;;2.70;;
11998;SDS011;40817;51.520;9.954;2023-11-21T12:27:48;5.32;;;2.97;;
11998;SDS011;40817;51.520;9.954;2023-11-21T12:30:18;4.60;;;2.88;;
11998;SDS011;40817;51.520;9.954;2023-11-21T12:32:48;4.35;;;2.67;;
11998;SDS011;40817;51.520;9.954;2023-11-21T12:35:17;4.40;;;2.72;;
11998;SDS011;40817;51.520;9.954;2023-11-21T12:37:46;4.43;;;3.05;;
11998;SDS011;40817;51.520;9.954;2023-11-21T12:40:16;7.10;;;2.83;;
11998;SDS011;40817;51.520;9.954;2023-11-21T12:42:43;4.43;;;2.70;;
11998;SDS011;40817;51.520;9.954;2023-11-21T12:45:20;5.05;;;2.70;;
11998;SDS011;40817;51.520;9.954;2023-11-21T12:47:52;5.07;;;3.05;;
11998;SDS011;40817;51.520;9.954;2023-11-21T12:50:25;6.65;;;3.13;;
11998;SDS011;40817;51.520;9.954;2023-11-21T12:52:58;8.30;;;3.35;;
11998;SDS011;40817;51.520;9.954;2023-11-21T12:55:30;5.05;;;3.08;;
11998;SDS011;40817;51.520;9.954;2023-11-21T12:58:02;4.50;;;2.70;;
11998;SDS011;40817;51.520;9.954;2023-11-21T13:00:34;5.78;;;3.40;;
11998;SDS011;40817;51.520;9.954;2023-11-21T13:03:04;5.50;;;3.15;;
11998;SDS011;40817;51.520;9.954;2023-11-21T13:05:34;5.35;;;3.35;;
11998;SDS011;40817;51.520;9.954;2023-11-21T13:08:05;4.43;;;3.03;;
11998;SDS011;40817;51.520;9.954;2023-11-21T13:10:39;5.50;;;2.97;;
11998;SDS011;40817;51.520;9.954;2023-11-21T13:13:12;5.85;;;2.95;;
11998;SDS011;40817;51.520;9.954;2023-11-21T13:15:46;6.03;;;3.35;;
11998;SDS011;40817;51.520;9.954;2023-11-21T13:18:15;5.68;;;3.30;;
11998;SDS011;40817;51.520;9.954;2023-11-21T13:20:43;9.23;;;3.78;;
11998;SDS011;40817;51.520;9.954;2023-11-21T13:23:11;5.70;;;3.70;;
11998;SDS011;40817;51.520;9.954;2023-11-21T13:25:40;6.40;;;3.40;;
11998;SDS011;40817;51.520;9.954;2023-11-21T13:28:13;6.93;;;4.40;;
11998;SDS011;40817;51.520;9.954;2023-11-21T13:30:41;6.47;;;3.67;;
11998;SDS011;40817;51.520;9.954;2023-11-21T13:33:09;7.90;;;4.93;;
11998;SDS011;40817;51.520;9.954;2023-11-21T13:35:43;5.65;;;3.63;;
11998;SDS011;40817;51.520;9.954;2023-11-21T13:38:14;6.28;;;3.95;;
11998;SDS011;40817;51.520;9.954;2023-11-21T13:40:46;5.18;;;3.58;;
11998;SDS011;40817;51.520;9.954;2023-11-21T13:43:18;6.15;;;3.97;;
11998;SDS011;40817;51.520;9.954;2023-11-21T13:45:49;6.20;;;4.00;;
11998;SDS011;40817;51.520;9.954;2023-11-21T13:48:23;7.53;;;3.88;;
11998;SDS011;40817;51.520;9.954;2023-11-21T13:50:59;5.10;;;3.80;;
11998;SDS011;40817;51.520;9.954;2023-11-21T13:53:35;7.05;;;4.28;;
11998;SDS011;40817;51.520;9.954;2023-11-21T13:56:05;6.13;;;4.07;;
11998;SDS011;40817;51.520;9.954;2023-11-21T13:58:34;7.75;;;4.68;;
11998;SDS011;40817;51.520;9.954;2023-11-21T14:01:09;7.63;;;4.50;;
11998;SDS011;40817;51.520;9.954;2023-11-21T14:03:54;7.38;;;4.00;;
11998;SDS011;40817;51.520;9.954;2023-11-21T14:06:27;6.95;;;4.32;;
11998;SDS011;40817;51.520;9.954;2023-11-21T14:08:59;7.55;;;4.50;;
11998;SDS011;40817;51.520;9.954;2023-11-21T14:11:31;9.05;;;5.30;;
11998;SDS011;40817;51.520;9.954;2023-11-21T14:14:03;8.43;;;4.90;;
11998;SDS011;40817;51.520;9.954;2023-11-21T14:16:30;8.02;;;4.80;;
11998;SDS011;40817;51.520;9.954;2023-11-21T14:18:58;6.78;;;4.78;;
11998;SDS011;40817;51.520;9.954;2023-11-21T14:21:34;8.90;;;5.15;;
11998;SDS011;40817;51.520;9.954;2023-11-21T14:24:01;6.50;;;4.30;;
11998;SDS011;40817;51.520;9.954;2023-11-21T14:26:35;8.23;;;5.35;;
11998;SDS011;40817;51.520;9.954;2023-11-21T14:29:03;6.78;;;4.35;;
11998;SDS011;40817;51.520;9.954;2023-11-21T14:31:30;8.98;;;4.93;;
11998;SDS011;40817;51.520;9.954;2023-11-21T14:33:58;7.30;;;4.50;;
11998;SDS011;40817;51.520;9.954;2023-11-21T14:36:26;6.68;;;4.63;;
11998;SDS011;40817;51.520;9.954;2023-11-21T14:38:54;8.02;;;5.20;;
11998;SDS011;40817;51.520;9.954;2023-11-21T14:41:22;9.00;;;5.20;;
11998;SDS011;40817;51.520;9.954;2023-11-21T14:43:54;9.35;;;5.57;;
11998;SDS011;40817;51.520;9.954;2023-11-21T14:46:22;6.72;;;4.25;;
11998;SDS011;40817;51.520;9.954;2023-11-21T14:48:50;6.38;;;3.97;;
11998;SDS011;40817;51.520;9.954;2023-11-21T14:51:25;6.03;;;4.22;;
11998;SDS011;40817;51.520;9.954;2023-11-21T14:53:55;7.35;;;4.40;;
11998;SDS011;40817;51.520;9.954;2023-11-21T14:56:31;7.25;;;3.88;;